Time;durP1;ratioP1;P1;durP2;ratioP2;P2;SDS_P1;SDS_P2;PMS_P1;PMS_P2;Temp;Humidity;BMP_temperature;BMP_pressure;BME280_temperature;BME280_humidity;BME280_pressure;Samples;Min_cycle;Max_cycle;Signal;HPM_P1;HPM_P2
2023/06/02 00:01:00;;;;;;;;;;;;;;;16.15;56.90;92679.16;2059094;69;20054;-77
2023/06/02 00:03:33;;;;;;;;;;;;;;;16.14;56.69;92680.56;2072277;69;20481;-78
2023/06/02 00:06:00;;;;;;;;;;;;;;;16.18;56.21;92677.88;2062231;69;20105;-77
2023/06/02 00:11:54;;;;;;;;;;;;;;;16.06;57.02;92672.44;2059421;69;20144;-77
2023/06/02 00:14:21;;;;;;;;;;;;;;;16.09;57.14;92671.16;2059123;69;20062;-78
2023/06/02 00:16:47;;;;;;;;;;;;;;;15.82;58.48;92660.84;2059028;69;20046;-78
2023/06/02 00:19:14;;;;;;;;;;;;;;;15.96;57.45;92674.88;2058972;69;20046;-78
2023/06/02 00:21:41;;;;;;;;;;;;;;;15.90;57.96;92677.47;2059112;69;20061;-78
2023/06/02 00:24:06;;;;;;;;;;;;;;;15.89;57.25;92667.47;2059027;69;20108;-77
2023/06/02 00:26:33;;;;;;;;;;;;;;;15.91;57.46;92671.13;2071938;69;20092;-78
2023/06/02 00:28:58;;;;;;;;;;;;;;;15.82;57.74;92677.88;2058688;69;20086;-78
2023/06/02 00:31:24;;;;;;;;;;;;;;;15.82;58.12;92674.28;2059075;69;20120;-78
2023/06/02 00:33:50;;;;;;;;;;;;;;;15.76;58.04;92683.31;2059103;69;20095;-78
2023/06/02 00:36:15;;;;;;;;;;;;;;;15.77;58.14;92678.34;2059651;69;20073;-76
2023/06/02 00:38:41;;;;;;;;;;;;;;;15.75;58.34;92673.31;2059177;69;20111;-76
2023/06/02 00:44:35;;;;;;;;;;;;;;;15.59;59.24;92667.66;2059276;69;20199;-77
2023/06/02 00:47:01;;;;;;;;;;;;;;;15.49;59.25;92675.75;2059205;69;20165;-77
2023/06/02 00:49:28;;;;;;;;;;;;;;;15.44;59.64;92669.19;2059137;69;20480;-76
2023/06/02 00:51:54;;;;;;;;;;;;;;;15.43;59.23;92664.13;2059178;69;20046;-77
2023/06/02 00:54:20;;;;;;;;;;;;;;;15.46;59.30;92671.38;2072026;69;20088;-78
2023/06/02 00:56:46;;;;;;;;;;;;;;;15.44;59.25;92671.25;2059157;69;20153;-77
2023/06/02 00:59:13;;;;;;;;;;;;;;;15.36;59.99;92660.31;2058878;69;20663;-77
2023/06/02 01:01:39;;;;;;;;;;;;;;;15.33;59.45;92664.44;2072042;69;20571;-77
2023/06/02 01:04:07;;;;;;;;;;;;;;;15.28;59.86;92664.91;2059021;69;20085;-78
2023/06/02 01:06:37;;;;;;;;;;;;;;;15.30;58.97;92662.16;2058869;69;20431;-77
2023/06/02 01:09:05;;;;;;;;;;;;;;;15.27;59.71;92666.31;2071560;69;20082;-77
2023/06/02 01:14:59;;;;;;;;;;;;;;;15.28;58.65;92671.31;2058903;69;20172;-77
2023/06/02 01:17:31;;;;;;;;;;;;;;;15.31;58.09;92655.13;2058581;69;20473;-77
2023/06/02 01:20:06;;;;;;;;;;;;;;;15.35;58.92;92660.94;2058704;69;20058;-77
2023/06/02 01:22:38;;;;;;;;;;;;;;;15.21;59.35;92661.06;2059076;69;20141;-76
2023/06/02 01:25:16;;;;;;;;;;;;;;;15.40;58.15;92668.28;2058867;69;20069;-77
2023/06/02 01:27:41;;;;;;;;;;;;;;;15.31;58.22;92658.69;2071748;69;20041;-76
2023/06/02 01:30:07;;;;;;;;;;;;;;;15.27;58.69;92660.63;2058880;69;20096;-76
2023/06/02 01:32:37;;;;;;;;;;;;;;;15.24;57.69;92654.13;2058940;69;20057;-76
2023/06/02 01:35:05;;;;;;;;;;;;;;;15.18;58.02;92665.94;2058995;69;20417;-76
2023/06/02 01:37:33;;;;;;;;;;;;;;;15.09;58.48;92663.41;2058863;69;20053;-77
2023/06/02 01:40:03;;;;;;;;;;;;;;;15.23;57.15;92652.66;2071755;69;20115;-76
2023/06/02 01:42:30;;;;;;;;;;;;;;;15.05;59.69;92655.44;2058833;69;20064;-77
2023/06/02 01:44:56;;;;;;;;;;;;;;;15.23;58.86;92652.66;2058777;69;20421;-77
2023/06/02 01:47:23;;;;;;;;;;;;;;;15.13;58.42;92652.25;2071821;69;20479;-77
2023/06/02 01:49:48;;;;;;;;;;;;;;;15.01;59.51;92649.59;2069163;69;20058;-77
2023/06/02 01:52:14;;;;;;;;;;;;;;;15.17;58.69;92650.31;2071912;69;20050;-77
2023/06/02 01:54:39;;;;;;;;;;;;;;;15.11;59.42;92649.31;2058670;69;20140;-77
2023/06/02 01:57:06;;;;;;;;;;;;;;;15.02;59.07;92647.50;2061076;69;20062;-77
2023/06/02 01:59:32;;;;;;;;;;;;;;;15.11;59.06;92638.69;2073393;69;20058;-78
2023/06/02 02:01:57;;;;;;;;;;;;;;;15.14;59.01;92645.91;2059388;69;20426;-77
2023/06/02 02:04:23;;;;;;;;;;;;;;;15.10;59.18;92642.19;2059068;69;20127;-78
2023/06/02 02:06:49;;;;;;;;;;;;;;;15.01;59.00;92652.44;2058699;69;20515;-77
2023/06/02 02:09:15;;;;;;;;;;;;;;;15.05;58.87;92640.53;2059154;69;20086;-77
2023/06/02 02:11:40;;;;;;;;;;;;;;;14.92;59.17;92650.63;2059189;69;20556;-77
2023/06/02 02:14:05;;;;;;;;;;;;;;;14.92;59.34;92653.44;2071947;69;20070;-78
2023/06/02 02:16:32;;;;;;;;;;;;;;;14.89;59.53;92649.81;2072021;69;20558;-77
2023/06/02 02:18:59;;;;;;;;;;;;;;;14.79;59.81;92643.69;2058986;69;20050;-77
2023/06/02 02:21:28;;;;;;;;;;;;;;;14.88;58.76;92644.75;2058642;69;20050;-78
2023/06/02 02:23:54;;;;;;;;;;;;;;;14.83;59.19;92643.84;2071892;69;20121;-77
2023/06/02 02:26:19;;;;;;;;;;;;;;;14.67;60.16;92643.88;2058617;69;20219;-77
2023/06/02 02:28:45;;;;;;;;;;;;;;;14.70;59.66;92648.25;2073982;69;20082;-78
2023/06/02 02:31:11;;;;;;;;;;;;;;;14.76;58.99;92642.13;2072821;69;20058;-76
2023/06/02 02:33:37;;;;;;;;;;;;;;;14.66;59.49;92644.50;2058828;69;20124;-78
2023/06/02 02:36:02;;;;;;;;;;;;;;;14.65;60.34;92640.22;2059104;69;20057;-77
2023/06/02 02:38:28;;;;;;;;;;;;;;;14.58;60.61;92642.06;2059009;69;20101;-76
2023/06/02 02:40:55;;;;;;;;;;;;;;;14.47;61.06;92640.09;2059011;69;20160;-77
2023/06/02 02:43:21;;;;;;;;;;;;;;;14.60;59.84;92652.75;2071950;69;20050;-77
2023/06/02 02:45:49;;;;;;;;;;;;;;;14.53;59.77;92646.09;2058810;69;20093;-77
2023/06/02 02:48:14;;;;;;;;;;;;;;;14.52;59.86;92652.38;2071878;69;20456;-77
2023/06/02 02:50:40;;;;;;;;;;;;;;;14.59;59.10;92652.00;2071902;69;20049;-77
2023/06/02 02:53:06;;;;;;;;;;;;;;;14.58;59.13;92655.50;2058892;69;20050;-77
2023/06/02 02:55:32;;;;;;;;;;;;;;;14.46;60.77;92647.13;2058946;69;20523;-77
2023/06/02 02:57:59;;;;;;;;;;;;;;;14.64;60.17;92641.59;2059006;69;20050;-77
2023/06/02 03:00:25;;;;;;;;;;;;;;;14.60;61.02;92647.06;2058473;69;20149;-77
2023/06/02 03:02:51;;;;;;;;;;;;;;;14.67;59.58;92651.66;2071832;69;20587;-77
2023/06/02 03:05:16;;;;;;;;;;;;;;;14.62;59.72;92647.19;2058749;69;20127;-77
2023/06/02 03:07:46;;;;;;;;;;;;;;;14.53;60.18;92642.53;2071874;69;20058;-77
2023/06/02 03:10:13;;;;;;;;;;;;;;;14.64;59.34;92638.75;2071936;69;20058;-78
2023/06/02 03:12:41;;;;;;;;;;;;;;;14.51;60.11;92637.47;2058924;69;20160;-77
2023/06/02 03:15:07;;;;;;;;;;;;;;;14.40;60.96;92636.25;2071767;69;20519;-77
2023/06/02 03:17:32;;;;;;;;;;;;;;;14.46;59.91;92639.38;2058840;69;20086;-77
2023/06/02 03:19:58;;;;;;;;;;;;;;;14.51;59.47;92648.81;2071817;69;20557;-77
2023/06/02 03:25:53;;;;;;;;;;;;;;;14.46;60.72;92649.97;2058874;69;20480;-77
2023/06/02 03:28:18;;;;;;;;;;;;;;;14.34;60.39;92649.41;2072001;69;20054;-77
2023/06/02 03:30:46;;;;;;;;;;;;;;;14.46;59.33;92653.53;2071625;69;20144;-77
2023/06/02 03:33:11;;;;;;;;;;;;;;;14.43;60.30;92652.00;2069124;69;20093;-77
2023/06/02 03:35:37;;;;;;;;;;;;;;;14.61;58.87;92648.53;2058712;69;20054;-78
2023/06/02 03:38:05;;;;;;;;;;;;;;;14.50;59.82;92650.19;2072201;69;20046;-77
2023/06/02 03:40:33;;;;;;;;;;;;;;;14.43;59.65;92651.22;2072252;69;20115;-77
2023/06/02 03:42:59;;;;;;;;;;;;;;;14.25;60.46;92651.16;2059195;69;20052;-77
2023/06/02 03:45:24;;;;;;;;;;;;;;;14.32;59.39;92646.47;2072211;69;20050;-77
2023/06/02 03:47:51;;;;;;;;;;;;;;;14.33;58.87;92651.50;2062584;69;20046;-77
2023/06/02 03:50:19;;;;;;;;;;;;;;;14.31;59.46;92654.25;2073051;69;20060;-77
2023/06/02 03:52:45;;;;;;;;;;;;;;;14.26;59.57;92649.78;2059073;69;20080;-77
2023/06/02 03:55:12;;;;;;;;;;;;;;;14.21;60.05;92654.50;2072247;69;20140;-77
2023/06/02 03:57:40;;;;;;;;;;;;;;;14.31;59.68;92659.91;2059213;69;20065;-76
2023/06/02 04:00:10;;;;;;;;;;;;;;;14.44;59.79;92658.38;2059167;69;20538;-77
2023/06/02 04:02:39;;;;;;;;;;;;;;;14.35;58.92;92656.53;2059194;69;20137;-78
2023/06/02 04:05:06;;;;;;;;;;;;;;;14.45;58.97;92663.41;2071920;69;20589;-77
2023/06/02 04:07:32;;;;;;;;;;;;;;;14.53;59.61;92659.50;2058729;69;20148;-77
2023/06/02 04:09:58;;;;;;;;;;;;;;;14.48;59.66;92667.09;2069245;69;20172;-78
2023/06/02 04:12:23;;;;;;;;;;;;;;;14.45;59.98;92666.22;2059207;69;20054;-77
2023/06/02 04:14:49;;;;;;;;;;;;;;;14.46;59.68;92664.84;2059022;69;20057;-77
2023/06/02 04:17:14;;;;;;;;;;;;;;;14.28;59.83;92666.13;2058919;69;20114;-76
2023/06/02 04:19:40;;;;;;;;;;;;;;;14.39;60.12;92665.22;2072886;69;20146;-76
2023/06/02 04:22:06;;;;;;;;;;;;;;;14.48;60.15;92670.66;2059317;69;20155;-77
2023/06/02 04:24:33;;;;;;;;;;;;;;;14.46;60.52;92662.03;2072125;69;20050;-76
2023/06/02 04:27:00;;;;;;;;;;;;;;;14.43;60.82;92668.22;2069437;69;20050;-76
2023/06/02 04:29:29;;;;;;;;;;;;;;;14.54;59.74;92669.47;2071992;69;20061;-76
2023/06/02 04:31:56;;;;;;;;;;;;;;;14.58;59.69;92667.56;2072025;69;20142;-76
2023/06/02 04:34:26;;;;;;;;;;;;;;;14.59;59.83;92671.84;2071811;69;20054;-75
2023/06/02 04:36:52;;;;;;;;;;;;;;;14.55;57.42;92668.81;2071878;69;20050;-76
2023/06/02 04:39:19;;;;;;;;;;;;;;;14.46;58.71;92673.34;2072108;69;20148;-75
2023/06/02 04:41:46;;;;;;;;;;;;;;;14.57;58.82;92677.44;2072133;69;20074;-76
2023/06/02 04:44:16;;;;;;;;;;;;;;;14.62;58.46;92673.41;2059129;69;20077;-76
2023/06/02 04:46:43;;;;;;;;;;;;;;;14.69;59.09;92677.22;2072167;69;20073;-76
2023/06/02 04:49:09;;;;;;;;;;;;;;;14.57;59.57;92671.00;2059173;69;20057;-76
2023/06/02 04:51:35;;;;;;;;;;;;;;;14.61;59.50;92674.75;2072123;69;20508;-76
2023/06/02 04:54:01;;;;;;;;;;;;;;;14.72;59.72;92670.28;2072163;69;20544;-76
2023/06/02 04:56:27;;;;;;;;;;;;;;;14.58;59.62;92670.38;2072166;69;20466;-78
2023/06/02 04:58:53;;;;;;;;;;;;;;;14.52;59.83;92669.34;2071747;69;20070;-76
2023/06/02 05:04:47;;;;;;;;;;;;;;;14.60;61.02;92676.13;2058974;69;20048;-76
2023/06/02 05:07:13;;;;;;;;;;;;;;;14.52;60.21;92672.91;2072168;69;20046;-76
2023/06/02 05:09:41;;;;;;;;;;;;;;;14.71;60.07;92674.50;2069251;69;20093;-78
2023/06/02 05:12:07;;;;;;;;;;;;;;;14.75;60.10;92680.34;2072083;69;20101;-75
2023/06/02 05:14:32;;;;;;;;;;;;;;;14.58;59.56;92670.38;2071904;69;20085;-75
2023/06/02 05:16:59;;;;;;;;;;;;;;;14.81;59.04;92674.97;2058680;69;20496;-75
2023/06/02 05:19:25;;;;;;;;;;;;;;;14.71;60.15;92672.41;2071956;69;20061;-75
2023/06/02 05:21:51;;;;;;;;;;;;;;;14.84;59.62;92670.81;2071940;69;20058;-76
2023/06/02 05:24:18;;;;;;;;;;;;;;;14.85;60.50;92666.63;2059068;69;20110;-78
2023/06/02 05:26:43;;;;;;;;;;;;;;;14.86;60.35;92670.19;2069274;69;20046;-78
2023/06/02 05:29:09;;;;;;;;;;;;;;;14.73;59.28;92668.91;2071944;69;20444;-78
2023/06/02 05:31:35;;;;;;;;;;;;;;;14.90;59.75;92667.53;2069069;69;20137;-77
2023/06/02 05:34:00;;;;;;;;;;;;;;;14.80;61.22;92667.84;2071973;69;20476;-78
2023/06/02 05:36:26;;;;;;;;;;;;;;;14.76;60.28;92669.75;2072939;69;20085;-77
2023/06/02 05:38:51;;;;;;;;;;;;;;;14.73;59.53;92663.97;2073774;69;20430;-76
2023/06/02 05:41:21;;;;;;;;;;;;;;;14.78;59.87;92667.00;2072730;69;20042;-76
2023/06/02 05:43:47;;;;;;;;;;;;;;;14.78;58.64;92658.50;2058895;69;20833;-76
2023/06/02 05:46:14;;;;;;;;;;;;;;;14.94;58.50;92654.28;2071815;69;20492;-77
2023/06/02 05:48:39;;;;;;;;;;;;;;;15.03;59.06;92655.38;2058855;69;20076;-77
2023/06/02 05:51:07;;;;;;;;;;;;;;;15.10;60.14;92656.34;2071882;69;20102;-77
2023/06/02 05:53:32;;;;;;;;;;;;;;;15.02;60.45;92653.16;2071998;69;20062;-76
2023/06/02 05:55:58;;;;;;;;;;;;;;;15.08;61.02;92661.94;2071810;69;20053;-78
2023/06/02 05:58:24;;;;;;;;;;;;;;;15.10;59.77;92656.34;2058283;69;20050;-76
2023/06/02 06:04:20;;;;;;;;;;;;;;;15.24;60.30;92654.13;2058961;69;20142;-77
2023/06/02 06:06:50;;;;;;;;;;;;;;;15.21;60.86;92652.56;2074400;69;20042;-77
2023/06/02 06:09:16;;;;;;;;;;;;;;;15.30;59.58;92651.53;2072580;69;20096;-77
2023/06/02 06:11:43;;;;;;;;;;;;;;;15.27;59.86;92650.00;2069091;69;20062;-77
2023/06/02 06:14:10;;;;;;;;;;;;;;;15.41;61.40;92656.28;2071900;69;20046;-77
2023/06/02 06:16:41;;;;;;;;;;;;;;;15.62;60.14;92646.50;2071950;69;20057;-78
2023/06/02 06:19:11;;;;;;;;;;;;;;;15.64;60.81;92645.91;2058972;69;20389;-78
2023/06/02 06:21:37;;;;;;;;;;;;;;;15.84;60.42;92652.38;2071950;69;20440;-78
2023/06/02 06:24:05;;;;;;;;;;;;;;;15.91;61.13;92648.44;2071948;69;20064;-79
2023/06/02 06:26:31;;;;;;;;;;;;;;;16.08;60.25;92655.50;2071873;69;20049;-78
2023/06/02 06:28:56;;;;;;;;;;;;;;;16.20;59.00;92641.75;2071853;69;20054;-78
2023/06/02 06:31:23;;;;;;;;;;;;;;;16.27;60.34;92649.16;2058963;69;20147;-78
2023/06/02 06:33:50;;;;;;;;;;;;;;;16.48;58.97;92647.06;2058948;69;20220;-78
2023/06/02 06:36:16;;;;;;;;;;;;;;;16.57;57.95;92642.44;2059172;69;20052;-78
2023/06/02 06:38:43;;;;;;;;;;;;;;;16.60;58.04;92644.69;2071968;69;20050;-78
2023/06/02 06:41:09;;;;;;;;;;;;;;;16.71;57.51;92640.13;2058606;69;20073;-78
2023/06/02 06:43:35;;;;;;;;;;;;;;;16.79;57.60;92645.41;2071577;69;20397;-78
2023/06/02 06:46:09;;;;;;;;;;;;;;;16.85;59.32;92643.50;2071929;69;20061;-78
2023/06/02 06:48:35;;;;;;;;;;;;;;;16.91;57.34;92648.72;2058916;69;20398;-78
2023/06/02 06:51:00;;;;;;;;;;;;;;;17.08;58.65;92645.03;2058877;69;20120;-78
2023/06/02 06:53:26;;;;;;;;;;;;;;;17.19;55.63;92640.47;2058892;69;20574;-78
2023/06/02 06:55:52;;;;;;;;;;;;;;;17.18;57.33;92639.75;2058902;69;20500;-78
2023/06/02 06:58:18;;;;;;;;;;;;;;;17.34;58.27;92633.16;2058859;69;20504;-77
2023/06/02 07:00:43;;;;;;;;;;;;;;;17.41;57.18;92638.41;2058432;69;20077;-77
2023/06/02 07:03:09;;;;;;;;;;;;;;;17.52;55.10;92637.34;2058823;69;20495;-78
2023/06/02 07:05:35;;;;;;;;;;;;;;;17.57;57.24;92634.66;2058676;69;20136;-78
2023/06/02 07:08:01;;;;;;;;;;;;;;;17.75;57.30;92638.13;2058699;69;20477;-78
2023/06/02 07:10:27;;;;;;;;;;;;;;;17.76;58.28;92642.44;2058601;69;20065;-78
2023/06/02 07:12:52;;;;;;;;;;;;;;;17.79;57.91;92635.41;2058914;69;20042;-79
2023/06/02 07:15:17;;;;;;;;;;;;;;;17.76;57.15;92634.63;2058695;69;20050;-77
2023/06/02 07:17:46;;;;;;;;;;;;;;;18.06;57.87;92624.91;2071912;69;20054;-77
2023/06/02 07:20:12;;;;;;;;;;;;;;;18.02;58.49;92634.03;2058789;69;20541;-77
2023/06/02 07:22:38;;;;;;;;;;;;;;;18.14;57.46;92627.97;2058771;69;20046;-76
2023/06/02 07:25:03;;;;;;;;;;;;;;;18.27;57.18;92630.53;2058656;69;20089;-77
2023/06/02 07:30:57;;;;;;;;;;;;;;;18.46;52.82;92626.16;2059565;69;20073;-77
2023/06/02 07:33:23;;;;;;;;;;;;;;;18.63;54.95;92626.63;2058961;69;20598;-77
2023/06/02 07:35:48;;;;;;;;;;;;;;;18.77;55.44;92615.66;2058903;69;20082;-77
2023/06/02 07:38:16;;;;;;;;;;;;;;;18.86;53.58;92616.63;2058813;69;20432;-77
2023/06/02 07:40:41;;;;;;;;;;;;;;;18.92;52.19;92616.78;2058811;69;20153;-78
2023/06/02 07:43:08;;;;;;;;;;;;;;;19.05;52.90;92605.06;2058702;69;20590;-77
2023/06/02 07:45:33;;;;;;;;;;;;;;;19.18;50.58;92599.69;2058455;69;20133;-77
2023/06/02 07:47:59;;;;;;;;;;;;;;;19.34;51.03;92597.28;2071677;69;20054;-77
2023/06/02 07:50:25;;;;;;;;;;;;;;;19.39;51.14;92600.97;2058792;69;20203;-80
2023/06/02 07:52:51;;;;;;;;;;;;;;;19.42;49.03;92591.78;2058852;69;20050;-78
2023/06/02 07:55:18;;;;;;;;;;;;;;;19.70;49.73;92591.84;2059021;69;20073;-77
2023/06/02 08:01:11;;;;;;;;;;;;;;;20.22;50.45;92585.22;2058960;69;20052;-78
2023/06/02 08:03:39;;;;;;;;;;;;;;;20.42;48.08;92585.66;2058882;69;20054;-78
2023/06/02 08:06:04;;;;;;;;;;;;;;;20.21;45.09;92586.63;2071636;69;20050;-78
2023/06/02 08:08:30;;;;;;;;;;;;;;;20.69;46.09;92577.69;2071712;69;20080;-78
2023/06/02 08:10:57;;;;;;;;;;;;;;;20.90;44.75;92573.84;2071723;69;20053;-79
2023/06/02 08:13:22;;;;;;;;;;;;;;;21.41;44.18;92582.75;2058764;69;20081;-80
2023/06/02 08:15:48;;;;;;;;;;;;;;;21.53;43.97;92565.75;2058663;69;20050;-80
2023/06/02 08:18:14;;;;;;;;;;;;;;;21.48;41.46;92576.41;2071742;69;20546;-79
2023/06/02 08:20:41;;;;;;;;;;;;;;;22.09;42.38;92576.75;2058961;69;20589;-80
2023/06/02 08:23:08;;;;;;;;;;;;;;;22.81;41.91;92572.78;2059270;69;20129;-80
2023/06/02 08:25:37;;;;;;;;;;;;;;;23.14;40.63;92568.22;2059184;69;20049;-80
2023/06/02 08:28:05;;;;;;;;;;;;;;;23.99;37.62;92565.53;2059190;69;20478;-80
2023/06/02 08:30:35;;;;;;;;;;;;;;;23.36;40.08;92564.88;2058916;69;20444;-77
2023/06/02 08:33:05;;;;;;;;;;;;;;;23.93;39.39;92561.88;2059219;69;20052;-78
2023/06/02 08:35:32;;;;;;;;;;;;;;;24.69;38.51;92561.03;2059072;69;20054;-78
2023/06/02 08:38:02;;;;;;;;;;;;;;;25.07;38.06;92563.41;2059214;69;20460;-80
2023/06/02 08:40:33;;;;;;;;;;;;;;;25.58;36.22;92557.84;2058831;69;20141;-79
2023/06/02 08:42:59;;;;;;;;;;;;;;;25.10;35.56;92547.56;2058541;69;20124;-79
2023/06/02 08:45:24;;;;;;;;;;;;;;;24.70;35.11;92550.97;2059132;69;20552;-79
2023/06/02 08:47:53;;;;;;;;;;;;;;;25.47;34.85;92550.59;2059139;69;20087;-79
2023/06/02 08:50:21;;;;;;;;;;;;;;;25.85;34.30;92552.16;2059142;69;20108;-80
2023/06/02 08:52:47;;;;;;;;;;;;;;;25.93;34.44;92546.38;2058493;69;20069;-80
2023/06/02 08:58:45;;;;;;;;;;;;;;;26.13;34.32;92542.09;2058863;69;20049;-79
2023/06/02 09:01:11;;;;;;;;;;;;;;;25.86;34.23;92542.06;2072221;69;20057;-80
2023/06/02 09:03:37;;;;;;;;;;;;;;;26.40;34.44;92537.03;2072167;69;20567;-80
2023/06/02 09:06:19;;;;;;;;;;;;;;;25.72;36.13;92539.84;2058809;69;20056;-81
2023/06/02 09:08:55;;;;;;;;;;;;;;;26.81;34.23;92538.41;2059185;69;20076;-81
2023/06/02 09:11:21;;;;;;;;;;;;;;;26.51;34.67;92532.69;2069381;69;20526;-80
2023/06/02 09:13:46;;;;;;;;;;;;;;;27.84;32.20;92538.72;2072124;69;20512;-79
2023/06/02 09:16:12;;;;;;;;;;;;;;;28.04;31.68;92534.97;2058977;69;20058;-81
2023/06/02 09:18:37;;;;;;;;;;;;;;;28.01;31.53;92534.28;2058773;69;20046;-80
2023/06/02 09:21:03;;;;;;;;;;;;;;;28.49;32.51;92537.53;2058848;69;20050;-80
2023/06/02 09:23:45;;;;;;;;;;;;;;;27.96;32.33;92524.19;2058976;69;20046;-80
2023/06/02 09:26:21;;;;;;;;;;;;;;;28.98;31.93;92529.13;2071943;69;20433;-81
2023/06/02 09:29:16;;;;;;;;;;;;;;;28.64;30.01;92521.50;2058894;69;20528;-81
2023/06/02 09:31:45;;;;;;;;;;;;;;;29.62;30.39;92520.41;2055835;69;20142;-79
2023/06/02 09:34:11;;;;;;;;;;;;;;;29.02;29.93;92517.50;2059059;69;20487;-80
2023/06/02 09:36:38;;;;;;;;;;;;;;;29.97;30.73;92519.91;2058957;69;20180;-79
2023/06/02 09:39:04;;;;;;;;;;;;;;;30.20;29.87;92514.53;2058928;69;20151;-79
2023/06/02 09:41:30;;;;;;;;;;;;;;;30.59;29.50;92506.56;2058985;69;20049;-79
2023/06/02 09:43:56;;;;;;;;;;;;;;;31.22;28.80;92506.91;2058980;69;20050;-79
2023/06/02 09:46:23;;;;;;;;;;;;;;;31.14;29.41;92505.59;2060196;69;20061;-80
2023/06/02 09:48:55;;;;;;;;;;;;;;;29.95;28.93;92506.16;2059688;69;20064;-80
2023/06/02 09:51:22;;;;;;;;;;;;;;;29.77;27.33;92510.03;2071522;69;20050;-80
2023/06/02 09:53:47;;;;;;;;;;;;;;;31.29;26.34;92508.94;2059053;69;20548;-80
2023/06/02 09:56:14;;;;;;;;;;;;;;;31.94;26.11;92514.91;2059192;69;20060;-80
2023/06/02 09:58:39;;;;;;;;;;;;;;;32.26;26.44;92510.53;2058981;69;20061;-80
2023/06/02 10:01:06;;;;;;;;;;;;;;;32.01;23.85;92511.09;2072017;69;20058;-79
2023/06/02 10:03:31;;;;;;;;;;;;;;;30.03;25.14;92499.50;2059061;69;20082;-79
2023/06/02 10:06:07;;;;;;;;;;;;;;;31.95;22.11;92493.75;2059049;69;20081;-79
2023/06/02 10:12:09;;;;;;;;;;;;;;;32.29;21.89;92494.41;2059212;69;20130;-80
2023/06/02 10:14:54;;;;;;;;;;;;;;;33.59;21.68;92493.22;2058911;69;20093;-80
2023/06/02 10:17:38;;;;;;;;;;;;;;;33.31;20.02;92491.81;2058973;69;20050;-81
2023/06/02 10:20:15;;;;;;;;;;;;;;;32.89;19.22;92486.34;2059187;69;20065;-81
2023/06/02 10:22:55;;;;;;;;;;;;;;;33.83;17.26;92480.09;2059146;69;20054;-81
2023/06/02 10:25:20;;;;;;;;;;;;;;;34.35;19.62;92488.72;2058651;69;20053;-81
2023/06/02 10:27:48;;;;;;;;;;;;;;;34.68;18.78;92478.91;2058284;69;20488;-80
2023/06/02 10:30:21;;;;;;;;;;;;;;;34.49;18.43;92482.44;2058893;69;20405;-79
2023/06/02 10:32:47;;;;;;;;;;;;;;;35.39;17.10;92473.50;2058977;69;20054;-80
2023/06/02 10:35:14;;;;;;;;;;;;;;;36.12;16.52;92467.84;2059016;69;20062;-80
2023/06/02 10:37:40;;;;;;;;;;;;;;;38.04;17.62;92464.84;2058942;69;20103;-80
2023/06/02 10:40:05;;;;;;;;;;;;;;;39.11;15.25;92467.69;2058915;69;20046;-81
2023/06/02 10:42:31;;;;;;;;;;;;;;;40.33;14.98;92469.34;2058774;69;20061;-80
2023/06/02 10:45:15;;;;;;;;;;;;;;;41.74;13.35;92461.09;2058540;69;20081;-85
2023/06/02 10:47:41;;;;;;;;;;;;;;;42.85;14.40;92470.38;2058833;69;20042;-81
2023/06/02 10:50:09;;;;;;;;;;;;;;;41.59;12.87;92466.50;2058998;69;20409;-82
2023/06/02 10:52:54;;;;;;;;;;;;;;;42.44;12.47;92471.59;2058950;69;20421;-85
2023/06/02 10:55:20;;;;;;;;;;;;;;;41.63;11.30;92466.25;2058963;69;20436;-84
2023/06/02 10:57:50;;;;;;;;;;;;;;;42.12;12.49;92460.28;2058955;69;20072;-83
2023/06/02 11:00:45;;;;;;;;;;;;;;;43.70;13.00;92466.16;2058773;69;20061;-82
2023/06/02 11:03:23;;;;;;;;;;;;;;;43.69;11.68;92455.16;2058175;69;20093;-86
2023/06/02 11:05:54;;;;;;;;;;;;;;;39.66;12.83;92448.72;2074839;69;20053;-79
2023/06/02 11:08:24;;;;;;;;;;;;;;;41.59;13.69;92454.69;2064680;69;20058;-83
2023/06/02 11:10:56;;;;;;;;;;;;;;;44.32;12.43;92451.44;2074938;69;20054;-83
2023/06/02 11:13:25;;;;;;;;;;;;;;;46.00;11.19;92457.44;2059449;69;20141;-84
2023/06/02 11:15:54;;;;;;;;;;;;;;;47.58;11.46;92458.00;2058823;69;20061;-84
2023/06/02 11:18:23;;;;;;;;;;;;;;;49.83;10.46;92455.97;2058572;69;20061;-84
2023/06/02 11:20:51;;;;;;;;;;;;;;;50.44;9.14;92455.41;2058997;69;20424;-86
2023/06/02 11:23:20;;;;;;;;;;;;;;;49.52;8.59;92440.16;2059022;69;20183;-84
2023/06/02 11:25:46;;;;;;;;;;;;;;;48.17;8.90;92436.63;2071957;69;20062;-83
2023/06/02 11:28:17;;;;;;;;;;;;;;;48.88;8.47;92436.25;2059032;69;20074;-85
2023/06/02 11:34:14;;;;;;;;;;;;;;;49.44;8.63;92431.91;2059606;69;20046;-87
2023/06/02 11:36:40;;;;;;;;;;;;;;;49.80;9.40;92433.78;2060352;69;20065;-84
2023/06/02 11:39:07;;;;;;;;;;;;;;;50.58;9.56;92427.78;2059595;69;20046;-85
2023/06/02 11:41:33;;;;;;;;;;;;;;;48.79;9.68;92430.31;2072141;69;20054;-86
2023/06/02 11:47:27;;;;;;;;;;;;;;;48.60;9.79;92416.31;2058918;69;20284;-86
2023/06/02 11:49:52;;;;;;;;;;;;;;;49.87;8.82;92416.69;2058845;69;20607;-83
2023/06/02 11:52:24;;;;;;;;;;;;;;;48.73;9.66;92415.91;2058956;69;20053;-85
2023/06/02 11:54:53;;;;;;;;;;;;;;;48.09;9.84;92405.91;2059187;69;20050;-84
2023/06/02 11:57:29;;;;;;;;;;;;;;;44.46;10.56;92395.59;2059327;69;20453;-85
2023/06/02 12:00:27;;;;;;;;;;;;;;;47.83;9.52;92402.94;2059412;69;20477;-82
2023/06/02 12:03:06;;;;;;;;;;;;;;;51.26;9.15;92412.88;2045343;70;20056;-83
2023/06/02 12:05:33;;;;;;;;;;;;;;;48.15;9.19;92395.00;2045407;70;20052;-85
2023/06/02 12:08:24;;;;;;;;;;;;;;;50.88;7.85;92407.75;2045561;70;20053;-83
2023/06/02 12:10:50;;;;;;;;;;;;;;;48.18;9.65;92384.31;2045412;70;20066;-84
2023/06/02 12:13:22;;;;;;;;;;;;;;;49.39;9.66;92389.75;2045551;70;20055;-85
2023/06/02 12:15:48;;;;;;;;;;;;;;;47.38;10.08;92373.31;2045245;70;20055;-86
2023/06/02 12:18:26;;;;;;;;;;;;;;;43.62;11.50;92372.63;2045466;70;20099;-84
2023/06/02 12:20:53;;;;;;;;;;;;;;;39.61;13.57;92363.47;2045411;70;20510;-85
2023/06/02 12:23:19;;;;;;;;;;;;;;;37.65;16.41;92357.94;2045298;70;20058;-86
2023/06/02 12:29:13;;;;;;;;;;;;;;;35.81;16.88;92350.47;2045343;70;20513;-88
2023/06/02 12:31:38;;;;;;;;;;;;;;;35.74;17.48;92350.00;2045678;70;20511;-84
2023/06/02 12:34:07;;;;;;;;;;;;;;;34.44;18.56;92346.00;2045316;70;20051;-84
2023/06/02 12:36:32;;;;;;;;;;;;;;;35.78;19.00;92343.97;2045278;70;20058;-86
2023/06/02 12:39:00;;;;;;;;;;;;;;;36.24;18.61;92331.16;2055254;69;20050;-86
2023/06/02 12:41:26;;;;;;;;;;;;;;;35.92;18.38;92344.91;2058824;69;20141;-83
2023/06/02 12:43:51;;;;;;;;;;;;;;;35.27;17.76;92327.66;2059203;69;20507;-84
2023/06/02 12:46:17;;;;;;;;;;;;;;;34.77;19.37;92333.88;2059308;69;20066;-84
2023/06/02 12:48:42;;;;;;;;;;;;;;;34.45;19.32;92336.44;2059241;69;20619;-85
2023/06/02 12:51:09;;;;;;;;;;;;;;;33.87;19.44;92339.88;2059328;69;20046;-84
2023/06/02 12:53:36;;;;;;;;;;;;;;;32.71;20.96;92323.63;2059847;69;20140;-84
2023/06/02 12:56:03;;;;;;;;;;;;;;;31.88;20.16;92327.28;2063897;69;20103;-79
2023/06/02 12:58:30;;;;;;;;;;;;;;;31.93;19.81;92327.91;2064449;69;20045;-84
2023/06/02 13:00:56;;;;;;;;;;;;;;;31.90;20.87;92320.72;2073470;69;20172;-84
2023/06/02 13:03:22;;;;;;;;;;;;;;;30.57;21.60;92320.75;2072367;69;20089;-82
2023/06/02 13:06:01;;;;;;;;;;;;;;;30.40;21.67;92322.53;2059129;69;20564;-81
2023/06/02 13:08:27;;;;;;;;;;;;;;;31.46;21.11;92316.69;2059291;69;20496;-81
2023/06/02 13:10:54;;;;;;;;;;;;;;;30.33;22.23;92312.50;2059253;69;20052;-84
2023/06/02 13:13:21;;;;;;;;;;;;;;;30.91;22.68;92315.00;2059331;69;20043;-82
2023/06/02 13:15:47;;;;;;;;;;;;;;;30.55;21.96;92323.69;2059207;69;20485;-83
2023/06/02 13:18:14;;;;;;;;;;;;;;;31.03;22.71;92318.34;2059324;69;20081;-86
2023/06/02 13:20:40;;;;;;;;;;;;;;;30.75;20.95;92316.06;2059559;69;20060;-83
2023/06/02 13:23:07;;;;;;;;;;;;;;;31.43;21.29;92306.56;2059616;69;20050;-84
2023/06/02 13:25:33;;;;;;;;;;;;;;;30.54;21.12;92301.22;2062097;69;20103;-82
2023/06/02 13:27:58;;;;;;;;;;;;;;;30.46;22.15;92304.28;2060433;69;20145;-86
2023/06/02 13:30:24;;;;;;;;;;;;;;;31.46;22.27;92299.94;2059623;69;20053;-84
2023/06/02 13:32:49;;;;;;;;;;;;;;;31.13;22.80;92291.94;2059631;69;20054;-85
2023/06/02 13:35:17;;;;;;;;;;;;;;;29.99;22.96;92297.16;2072506;69;20049;-86